Monistrol de Calders





Hora UTC 13:20
Temperatura 23.0 ºC
Humitat 52.0 %
Pressió 1016.7 hPa
Pluja 0.2 mm
Velocitat vent 3.2 km/h
Direcció vent NW

Dades diàries 2021-09-19



Hora UTC (hivern +1h; estiu +2h)
Temperatura (ºC) Humitat (%) Pressió (hPa) Velocitat vent (km/h) Precipitació (mm)
Hora UTC Aire Humitat Pressió Vel. Dir. Vel. Max Dir. Intent. màx 5 min.
00:05 16.8 89.0 1014.2 0.0 S 0.0 0.0
00:10 16.7 89.0 1014.4 0.0 S 3.2 0.0
00:15 16.6 89.0 1014.4 0.0 SSW 4.8 0.0
00:20 16.3 89.0 1014.6 1.6 SSW 4.8 0.0
00:25 16.3 89.0 1014.4 0.0 SSW 1.6 0.0
00:30 16.2 89.0 1014.4 0.0 SW 11.3 0.0
00:35 16.3 89.0 1014.4 0.0 SW 11.3 0.0
00:40 16.3 89.0 1014.3 0.0 SW 0.0 0.0
00:45 16.2 89.0 1014.3 0.0 SE 1.6 0.0
00:50 16.1 89.0 1014.4 0.0 SE 1.6 0.0
00:55 15.9 89.0 1014.4 0.0 SE 0.0 0.0
01:00 15.8 89.0 1014.5 0.0 SE 0.0 0.0
01:05 15.7 89.0 1014.4 0.0 SE 0.0 0.0
01:10 15.7 89.0 1014.5 0.0 SE 0.0 0.0
01:15 15.5 89.0 1014.6 0.0 SE 0.0 0.0
01:20 15.3 89.0 1014.6 0.0 SE 0.0 0.0
01:25 15.1 89.0 1014.6 0.0 SE 0.0 0.0
01:30 14.9 89.0 1014.6 0.0 SE 0.0 0.0
01:35 14.8 89.0 1014.6 0.0 SE 0.0 0.0
01:40 14.7 89.0 1014.5 1.6 SE 4.8 0.0
01:45 14.7 90.0 1014.8 0.0 SE 4.8 0.0
01:50 14.5 89.0 1014.7 0.0 SE 3.2 0.0
01:55 14.4 89.0 1014.8 0.0 SE 3.2 0.2
02:00 14.3 90.0 1014.8 0.0 SE 0.0 0.0
02:05 14.2 89.0 1014.8 0.0 SE 0.0 0.0
02:10 14.1 90.0 1014.9 0.0 SE 1.6 0.0
02:15 13.9 90.0 1015.0 0.0 SE 1.6 0.0
02:20 13.8 90.0 1015.1 0.0 SE 1.6 0.0
02:25 13.7 90.0 1015.1 0.0 SE 1.6 0.0
02:30 13.6 90.0 1015.1 0.0 SE 1.6 0.0
02:35 13.0 90.0 1015.1 4.8 WSW 12.9 0.0
02:40 12.8 89.0 1015.1 6.4 SW 12.9 0.0
02:45 12.8 88.0 1015.1 4.8 SW 9.7 0.0
02:50 12.8 86.0 1015.1 3.2 WNW 9.7 0.0
02:55 12.9 86.0 1015.1 0.0 WNW 6.4 0.0
03:00 13.1 86.0 1015.2 0.0 WNW 1.6 0.0
03:05 13.0 85.0 1015.1 0.0 WNW 0.0 0.0
03:10 12.9 86.0 1015.1 0.0 SSE 0.0 0.0
03:15 12.7 87.0 1015.1 0.0 SSE 0.0 0.0
03:20 12.6 87.0 1015.2 0.0 SSE 0.0 0.0
03:25 12.3 87.0 1015.2 0.0 SSE 0.0 0.0
03:30 12.1 88.0 1015.2 0.0 SSE 1.6 0.0
03:35 11.9 88.0 1015.2 0.0 SSE 1.6 0.0
03:40 11.8 88.0 1015.2 0.0 SSE 0.0 0.0
03:45 11.7 89.0 1015.3 0.0 SSE 0.0 0.0
03:50 11.6 89.0 1015.2 0.0 SSE 0.0 0.0
03:55 11.7 89.0 1015.1 0.0 SSE 0.0 0.0
04:00 11.5 89.0 1015.3 0.0 ENE 4.8 0.0
04:05 11.4 89.0 1015.3 0.0 ENE 4.8 0.0
04:10 11.3 89.0 1015.3 0.0 ENE 1.6 0.0
04:15 11.2 89.0 1015.4 0.0 ENE 8.0 0.0
04:20 11.1 89.0 1015.4 0.0 ENE 8.0 0.0
04:25 11.1 89.0 1015.5 0.0 ENE 4.8 0.0
04:30 10.9 89.0 1015.5 1.6 ESE 4.8 0.0
04:35 10.9 89.0 1015.6 0.0 ESE 4.8 0.0
04:40 10.8 89.0 1015.6 0.0 ESE 0.0 0.0
04:45 10.7 89.0 1015.6 0.0 ESE 3.2 0.0
04:50 10.7 89.0 1015.7 0.0 SE 3.2 0.0
04:55 10.6 89.0 1015.8 0.0 SE 3.2 0.0
05:00 10.5 89.0 1015.8 0.0 SSE 6.4 0.0
05:05 10.4 90.0 1015.8 0.0 E 6.4 0.0
05:10 10.3 89.0 1016.0 0.0 ENE 1.6 0.0
05:15 10.3 90.0 1016.1 0.0 ENE 1.6 0.0
05:20 10.3 90.0 1016.2 0.0 ENE 0.0 0.0
05:25 10.2 90.0 1016.1 0.0 ENE 0.0 0.0
05:30 10.1 90.0 1016.2 0.0 ENE 0.0 0.0
05:35 10.0 90.0 1016.3 0.0 ENE 0.0 0.0
05:40 9.9 90.0 1016.4 0.0 ENE 0.0 0.0
05:45 9.9 90.0 1016.5 0.0 ENE 0.0 0.0
05:50 9.9 90.0 1016.5 0.0 ENE 0.0 0.0
05:55 9.9 90.0 1016.6 0.0 ENE 0.0 0.0
06:00 9.8 90.0 1016.7 0.0 ENE 0.0 0.0
06:05 9.8 90.0 1016.8 0.0 ENE 0.0 0.0
06:10 9.8 90.0 1016.9 0.0 ESE 0.0 0.0
06:15 9.8 90.0 1016.9 0.0 ESE 1.6 0.0
06:20 9.8 90.0 1017.0 0.0 ESE 0.0 0.0
06:25 9.9 90.0 1016.9 0.0 ESE 0.0 0.0
06:30 10.1 90.0 1017.0 0.0 ESE 0.0 0.0
06:35 10.3 90.0 1017.2 0.0 ESE 0.0 0.0
06:40 10.4 90.0 1017.1 0.0 ESE 0.0 0.0
06:45 10.8 90.0 1017.2 0.0 ESE 0.0 0.0
06:50 10.9 90.0 1017.2 0.0 ESE 0.0 0.0
06:55 11.1 90.0 1017.1 0.0 ESE 0.0 0.0
07:00 11.2 90.0 1017.2 0.0 ESE 0.0 0.0
07:05 11.6 90.0 1017.2 0.0 ESE 0.0 0.0
07:10 11.8 89.0 1017.3 0.0 ESE 0.0 0.0
07:15 12.0 89.0 1017.3 0.0 ESE 0.0 0.0
07:20 12.2 89.0 1017.3 1.6 ESE 1.6 0.0
07:25 12.4 88.0 1017.3 0.0 ESE 1.6 0.0
07:30 12.6 88.0 1017.2 0.0 ESE 0.0 0.0
07:35 12.8 87.0 1017.3 0.0 ESE 0.0 0.0
07:40 13.2 86.0 1017.2 0.0 ESE 3.2 0.0
07:45 13.6 85.0 1017.3 0.0 ESE 3.2 0.0
07:50 13.7 83.0 1017.3 0.0 ESE 1.6 0.0
07:55 13.8 83.0 1017.4 0.0 ESE 3.2 0.0
08:00 14.0 83.0 1017.5 0.0 ESE 3.2 0.0
08:05 14.3 83.0 1017.4 0.0 ESE 0.0 0.0
08:10 14.4 83.0 1017.4 0.0 ESE 1.6 0.0
08:15 14.6 82.0 1017.4 3.2 ESE 4.8 0.0
08:20 14.8 82.0 1017.5 0.0 ESE 4.8 0.0
08:25 14.9 81.0 1017.7 0.0 ESE 3.2 0.0
08:30 15.0 80.0 1017.7 0.0 ESE 6.4 0.0
08:35 14.9 80.0 1017.8 0.0 WSW 6.4 0.0
08:40 14.8 80.0 1017.7 0.0 SW 4.8 0.0
08:45 14.9 82.0 1017.7 3.2 N 4.8 0.0
08:50 15.0 81.0 1017.8 0.0 NNE 4.8 0.0
08:55 15.1 80.0 1017.9 0.0 NNE 1.6 0.0
09:00 15.1 81.0 1017.9 0.0 WNW 8.0 0.0
09:05 15.3 81.0 1018.0 0.0 WNW 8.0 0.0
09:10 15.3 81.0 1018.0 0.0 WNW 3.2 0.0
09:15 15.4 81.0 1018.1 0.0 WNW 3.2 0.0
09:20 15.4 82.0 1018.1 0.0 WNW 1.6 0.0
09:25 15.7 82.0 1018.1 0.0 WNW 8.0 0.0
09:30 15.9 82.0 1018.1 0.0 WNW 8.0 0.0
09:35 16.1 80.0 1018.1 1.6 WNW 3.2 0.0
09:40 16.3 80.0 1018.1 0.0 NW 6.4 0.0
09:45 16.3 80.0 1018.1 0.0 WNW 6.4 0.0
09:50 16.4 78.0 1018.2 1.6 SW 4.8 0.0
09:55 16.6 78.0 1018.1 1.6 NNE 6.4 0.0
10:00 16.7 77.0 1018.1 0.0 NW 6.4 0.0
10:05 16.8 78.0 1017.9 3.2 WNW 6.4 0.0
10:10 17.1 77.0 1017.9 0.0 NW 6.4 0.0
10:15 17.3 77.0 1017.9 1.6 WNW 6.4 0.0
10:20 17.5 75.0 1017.8 4.8 WNW 6.4 0.0
10:25 17.7 74.0 1017.9 0.0 NW 4.8 0.0
10:30 17.8 74.0 1017.9 3.2 N 4.8 0.0
10:35 17.8 74.0 1017.8 1.6 N 4.8 0.0
10:40 17.9 73.0 1017.7 1.6 WNW 4.8 0.0
10:45 17.9 74.0 1017.7 0.0 SW 6.4 0.0
10:50 18.1 74.0 1017.7 1.6 SW 6.4 0.0
10:55 18.5 75.0 1017.6 0.0 W 4.8 0.0
11:00 18.8 71.0 1017.6 4.8 ESE 4.8 0.0
11:05 18.8 70.0 1017.6 1.6 ENE 6.4 0.0
11:10 18.8 70.0 1017.6 0.0 ENE 6.4 0.0
11:15 18.8 68.0 1017.5 4.8 NE 8.0 0.0
11:20 18.9 72.0 1017.6 1.6 NE 8.0 0.0
11:25 19.2 70.0 1017.5 3.2 NE 6.4 0.0
11:30 19.6 69.0 1017.4 1.6 NNE 4.8 0.0
11:35 19.7 67.0 1017.5 0.0 NNE 4.8 0.0
11:40 19.8 69.0 1017.5 6.4 ENE 8.0 0.0
11:45 19.7 66.0 1017.5 1.6 ENE 8.0 0.0
11:50 19.9 66.0 1017.4 0.0 NE 6.4 0.0
11:55 20.2 67.0 1017.4 3.2 SW 6.4 0.0
12:00 20.6 62.0 1017.4 0.0 WNW 8.0 0.0
12:05 20.8 61.0 1017.3 4.8 S 8.0 0.0
12:10 21.0 61.0 1017.3 3.2 WSW 8.0 0.0
12:15 21.3 60.0 1017.3 0.0 WNW 8.0 0.0
12:20 21.4 60.0 1017.3 3.2 SW 8.0 0.0
12:25 21.3 60.0 1017.3 9.7 SSW 12.9 0.0
12:30 21.3 59.0 1017.2 8.0 SW 12.9 0.0
12:35 21.3 62.0 1017.0 1.6 WNW 12.9 0.0
12:40 21.6 58.0 1017.0 4.8 W 8.0 0.0
12:45 21.6 57.0 1017.0 3.2 W 14.5 0.0
12:50 21.7 56.0 1016.9 0.0 WNW 14.5 0.0
12:55 21.9 59.0 1016.9 11.3 WNW 14.5 0.0
13:00 22.2 57.0 1016.9 4.8 WSW 14.5 0.0
13:05 22.3 58.0 1016.9 3.2 WNW 11.3 0.0
13:10 22.7 55.0 1016.8 1.6 SSW 11.3 0.0
13:15 23.0 55.0 1016.8 0.0 NW 4.8 0.0
13:20 23.0 52.0 1016.7 3.2 NW 8.0 0.0
Màxima 23.1 90.0 1018.2 11.3 WNW 14.5 0.2
Mínima 9.8 52.0 1014.2
Total 0.2